»·PEaware :: N722SD L88-KSBP

N722SD :: L88-KSBP

FLIGHT INFORMATION

Flight Status: Arrived
Operator: Privately registered:
United States
More flights under this callsign
Pilot: Stephen D. (45498)
Aircraft: CESSNA 172 SKYHAWK
(C172)
More flights by this aircraft type
Origin: L88 New Cuyama
United States
Destination: KSBP San Luis Co Regl
United States
More flights between these airports :: More routes between these airports
Route: FLW POZOE
File this flight plan on PilotEdge
Remarks: CAT-02 TEST
Altitude:
(Current/Filed)
6,500ft
Speed:
(Current/Filed)
100kts
Departed: 02-Nov-23 11:31 AM
Arrived: 02-Nov-23 12:02 PM
Distance/Time
Traveled:
50nm/0:31
Distance/Time
To Go:
Arrived

Flight Plot

Page will automatically refresh every two minutes.

Flight plan parsing failed; only flown route is shown


Map Options




Map Legend


Flown Route
Filed Route
Departure Airport
Arrival Airport
Navaid (VOR, NDB)
Fix

Horizontal Profiles

Position Reports

Time Latitude Longitude Heading Altitude Ground
Speed
02-Nov-23 11:12 34.942822 -119.690409 62 2154ft 0kts
02-Nov-23 11:13 34.942822 -119.690409 62 2154ft 0kts
02-Nov-23 11:14 34.942822 -119.690409 62 2154ft 0kts
02-Nov-23 11:15 34.942822 -119.690409 62 2154ft 0kts
02-Nov-23 11:16 34.942822 -119.690409 62 2154ft 0kts
02-Nov-23 11:17 34.942822 -119.690409 62 2154ft 0kts
02-Nov-23 11:18 34.942822 -119.690409 62 2154ft 0kts
02-Nov-23 11:19 34.942631 -119.690520 286 2150ft 0kts
02-Nov-23 11:20 34.942631 -119.690520 286 2150ft 0kts
02-Nov-23 11:21 34.942796 -119.691216 213 2149ft 0kts
02-Nov-23 11:22 34.942437 -119.691421 158 2147ft 9kts
02-Nov-23 11:24 34.942822 -119.690409 62 2151ft 0kts
02-Nov-23 11:25 34.942822 -119.690409 62 2151ft 0kts
02-Nov-23 11:26 34.942822 -119.690409 62 2151ft 0kts
02-Nov-23 11:27 34.942822 -119.690409 62 2153ft 0kts
02-Nov-23 11:27 34.942822 -119.690409 62 2153ft 0kts
02-Nov-23 11:28 34.942711 -119.690240 216 2152ft 3kts
02-Nov-23 11:30 34.942749 -119.691204 218 2148ft 0kts
02-Nov-23 11:31 34.937913 -119.680881 111 2242ft 76kts
02-Nov-23 11:32 34.927722 -119.655020 116 2856ft 80kts
02-Nov-23 11:33 34.917730 -119.661469 291 3318ft 92kts
02-Nov-23 11:33 34.925117 -119.685997 293 3826ft 92kts
02-Nov-23 11:34 34.934607 -119.714753 289 4318ft 92kts
02-Nov-23 11:35 34.945902 -119.742909 298 4674ft 93kts
02-Nov-23 11:37 34.962882 -119.773067 302 5184ft 93kts
02-Nov-23 11:38 34.978294 -119.799022 300 5578ft 93kts
02-Nov-23 11:38 34.988150 -119.824557 296 5713ft 107kts
02-Nov-23 11:39 34.999934 -119.858591 281 5754ft 110kts
02-Nov-23 11:40 35.008390 -119.895050 289 5695ft 114kts
02-Nov-23 11:41 35.019162 -119.932748 286 5562ft 118kts
02-Nov-23 11:42 35.028529 -119.970134 287 5541ft 117kts
02-Nov-23 11:43 35.038633 -120.006129 293 5859ft 100kts
02-Nov-23 11:44 35.047617 -120.037437 291 6290ft 103kts
02-Nov-23 11:45 35.057574 -120.072354 288 6495ft 112kts
02-Nov-23 11:46 35.069402 -120.108583 296 6470ft 118kts
02-Nov-23 11:47 35.081261 -120.146603 290 6415ft 118kts
02-Nov-23 11:48 35.090628 -120.185011 290 6376ft 116kts
02-Nov-23 11:49 35.102370 -120.220637 293 6432ft 113kts
02-Nov-23 11:50 35.114317 -120.255472 298 6474ft 115kts
02-Nov-23 11:51 35.127351 -120.290875 293 6409ft 115kts
02-Nov-23 11:52 35.138116 -120.328255 292 6491ft 116kts
02-Nov-23 11:53 35.146588 -120.366477 285 6488ft 116kts
02-Nov-23 11:54 35.153509 -120.405501 286 6428ft 116kts
02-Nov-23 11:55 35.163049 -120.443352 295 6175ft 124kts
02-Nov-23 11:56 35.175568 -120.483190 291 5756ft 128kts
02-Nov-23 11:57 35.185535 -120.529716 288 4031ft 144kts
02-Nov-23 11:58 35.201316 -120.575375 297 1859ft 143kts
02-Nov-23 11:59 35.218944 -120.608786 303 1010ft 93kts
02-Nov-23 12:00 35.233040 -120.633440 304 236ft 79kts
02-Nov-23 12:01 35.239693 -120.644134 17 181ft 11kts
02-Nov-23 12:02 35.239880 -120.643596 118 182ft 2kts
02-Nov-23 12:03 35.238813 -120.641466 81 189ft 4kts

Navigation Log

Ident Type
Flight plan parsing failed, navigation log unavailable